.
WxDataArchive / Data Records for 2012-03-27
2012-03-26 March 2012 2012-03-28

Data Records for Tuesday, 27 March 2012

Time	Temp	Chill	HIndex	Humid	Dewpt	 Wind 	HiWind	WindDir	Rain 	Barom 
-----	----	-----	------	-----	-----	------	------	-------	-----	----- 
00:00	36.3	36.3	36.3	63	24.9	1	5	68	0.00	30.374 
00:05	36.2	36.2	36.2	64	25.2	2	5	135	0.00	30.374 
00:10	36.0	36.0	36.0	64	25.0	1	3	112	0.00	30.374 
00:15	35.9	35.9	35.9	64	24.9	1	3	112	0.00	30.369 
00:20	35.8	35.8	35.8	63	24.5	1	4	112	0.00	30.369 
00:25	35.6	35.6	35.6	63	24.3	1	3	112	0.00	30.369 
00:30	35.6	35.6	35.6	62	23.9	2	5	90	0.00	30.369 
00:35	35.6	35.6	35.6	62	23.9	1	3	90	0.00	30.369 
00:40	35.5	35.5	35.5	62	23.8	2	6	112	0.00	30.369 
00:45	35.5	35.5	35.5	62	23.8	1	3	112	0.00	30.374 
00:50	35.3	35.3	35.3	63	24.0	1	3	22	0.00	30.374 
00:55	35.2	35.2	35.2	64	24.3	1	3	22	0.00	30.374 
01:00	34.9	34.9	34.9	64	24.0	1	3	68	0.00	30.371 
01:05	34.7	34.7	34.7	64	23.8	2	7	90	0.00	30.371 
01:10	34.7	34.7	34.7	64	23.8	1	4	90	0.00	30.371 
01:15	34.6	34.6	34.6	65	24.1	0	2	90	0.00	30.369 
01:20	34.6	34.6	34.6	64	23.7	1	3	90	0.00	30.369 
01:25	34.4	34.4	34.4	65	23.9	0	2	158	0.00	30.369 
01:30	34.3	34.3	34.3	64	23.4	1	3	68	0.00	30.366 
01:35	34.3	34.3	34.3	64	23.4	1	3	90	0.00	30.366 
01:40	34.3	34.3	34.3	63	23.0	2	4	90	0.00	30.366 
01:45	34.3	34.3	34.3	63	23.0	2	5	112	0.00	30.362 
01:50	34.3	34.3	34.3	63	23.0	1	3	90	0.00	30.362 
01:55	34.1	34.1	34.1	63	22.8	1	4	90	0.00	30.362 
02:00	34.1	34.1	34.1	64	23.2	1	2	112	0.00	30.365 
02:05	34.0	34.0	34.0	64	23.1	1	4	112	0.00	30.365 
02:10	33.8	33.8	33.8	65	23.3	1	4	68	0.00	30.365 
02:15	33.8	33.8	33.8	65	23.3	1	4	68	0.00	30.354 
02:20	33.7	33.7	33.7	65	23.2	2	4	68	0.00	30.354 
02:25	33.7	33.7	33.7	65	23.2	1	4	90	0.00	30.354 
02:30	33.5	33.5	33.5	65	23.0	2	4	90	0.00	30.350 
02:35	33.5	33.5	33.5	66	23.4	1	4	68	0.00	30.350 
02:40	33.4	33.4	33.4	66	23.3	1	3	112	0.00	30.350 
02:45	33.2	33.2	33.2	67	23.4	1	3	112	0.00	30.351 
02:50	33.1	33.1	33.1	67	23.4	1	3	112	0.00	30.351 
02:55	32.9	32.9	32.9	67	23.2	1	3	112	0.00	30.351 
03:00	32.9	32.9	32.9	67	23.2	1	5	90	0.00	30.353 
03:05	32.9	32.9	32.9	67	23.2	1	3	90	0.00	30.353 
03:10	32.8	32.8	32.8	66	22.7	1	3	90	0.00	30.353 
03:15	32.8	32.8	32.8	66	22.7	0	2	90	0.00	30.355 
03:20	32.8	32.8	32.8	66	22.7	1	3	90	0.00	30.355 
03:25	32.7	32.7	32.7	66	22.6	1	3	90	0.00	30.355 
03:30	32.7	32.7	32.7	66	22.6	1	3	90	0.00	30.352 
03:35	32.5	32.5	32.5	66	22.4	2	4	68	0.00	30.352 
03:40	32.5	32.5	32.5	65	22.1	2	4	90	0.00	30.352 
03:45	32.7	32.7	32.7	64	21.9	2	6	68	0.00	30.340 
03:50	32.7	32.7	32.7	64	21.9	3	5	90	0.00	30.340 
03:55	32.7	32.7	32.7	63	21.5	3	6	112	0.00	30.340 
04:00	32.7	32.7	32.7	62	21.1	3	9	90	0.00	30.336 
04:05	32.7	32.7	32.7	62	21.1	3	5	68	0.00	30.336 
04:10	32.7	32.7	32.7	62	21.1	2	5	90	0.00	30.336 
04:15	32.7	32.7	32.7	62	21.1	3	6	90	0.00	30.334 
04:20	32.7	32.7	32.7	62	21.1	3	7	90	0.00	30.334 
04:25	32.5	32.5	32.5	62	20.9	2	6	112	0.00	30.334 
04:30	32.5	32.5	32.5	62	20.9	3	7	112	0.00	30.318 
04:35	32.4	32.4	32.4	62	20.9	3	6	90	0.00	30.318 
04:40	32.4	32.4	32.4	61	20.5	3	9	112	0.00	30.318 
04:45	32.4	32.4	32.4	62	20.9	3	9	90	0.00	30.306 
04:50	32.2	28.3	32.2	62	20.7	4	9	112	0.00	30.306 
04:55	32.2	32.2	32.2	62	20.7	2	7	90	0.00	30.306 
05:00	32.2	32.2	32.2	63	21.0	2	4	90	0.00	30.309 
05:05	32.1	32.1	32.1	62	20.6	2	4	112	0.00	30.309 
05:10	32.1	32.1	32.1	63	20.9	3	6	90	0.00	30.309 
05:15	31.9	31.9	31.9	64	21.1	2	5	135	0.00	30.302 
05:20	31.9	31.9	31.9	64	21.1	1	3	112	0.00	30.302 
05:25	31.9	31.9	31.9	63	20.8	2	5	90	0.00	30.302 
05:30	31.9	31.9	31.9	63	20.8	2	5	68	0.00	30.305 
05:35	31.9	31.9	31.9	64	21.1	2	5	68	0.00	30.305 
05:40	31.9	31.9	31.9	62	20.4	2	6	90	0.00	30.305 
05:45	31.9	31.9	31.9	61	20.0	1	5	112	0.00	30.305 
05:50	31.9	31.9	31.9	61	20.0	2	5	90	0.00	30.305 
05:55	31.8	31.8	31.8	60	19.5	1	3	112	0.00	30.305 
06:00	31.8	31.8	31.8	60	19.5	1	4	112	0.00	30.325 
06:05	31.8	31.8	31.8	60	19.5	0	2	112	0.00	30.325 
06:10	31.8	31.8	31.8	59	19.1	1	4	90	0.00	30.325 
06:15	31.8	31.8	31.8	58	18.7	1	4	90	0.00	30.341 
06:20	31.8	31.8	31.8	58	18.7	2	5	112	0.00	30.341 
06:25	31.8	31.8	31.8	58	18.7	2	4	90	0.00	30.341 
06:30	31.8	31.8	31.8	59	19.1	1	4	90	0.00	30.350 
06:35	31.6	31.6	31.6	59	18.9	1	2	90	0.00	30.350 
06:40	31.6	31.6	31.6	59	18.9	1	3	90	0.00	30.350 
06:45	31.6	31.6	31.6	60	19.3	1	3	90	0.00	30.352 
06:50	31.5	31.5	31.5	61	19.6	1	2	90	0.00	30.352 
06:55	31.5	31.5	31.5	61	19.6	0	2	90	0.00	30.352 
07:00	31.3	31.3	31.3	62	19.8	0	2	90	0.00	30.363 
07:05	31.3	31.3	31.3	62	19.8	0	1	90	0.00	30.363 
07:10	31.2	31.2	31.2	62	19.7	1	2	90	0.00	30.363 
07:15	31.2	31.2	31.2	63	20.1	1	3	90	0.00	30.357 
07:20	31.2	31.2	31.2	64	20.5	1	2	90	0.00	30.357 
07:25	31.0	31.0	31.0	65	20.6	1	4	90	0.00	30.357 
07:30	31.0	31.0	31.0	65	20.6	2	6	112	0.00	30.333 
07:35	31.0	31.0	31.0	66	21.0	2	4	112	0.00	30.333 
07:40	30.9	30.9	30.9	66	20.9	2	5	112	0.00	30.333 
07:45	30.9	30.9	30.9	67	21.3	1	3	90	0.00	30.328 
07:50	30.9	30.9	30.9	67	21.3	1	3	90	0.00	30.328 
07:55	31.0	31.0	31.0	67	21.3	2	4	112	0.00	30.328 
08:00	31.0	31.0	31.0	68	21.7	2	4	68	0.00	30.331 
08:05	31.2	31.2	31.2	68	21.9	2	6	90	0.00	30.331 
08:10	31.2	31.2	31.2	68	21.9	2	6	90	0.00	30.331 
08:15	31.3	31.3	31.3	67	21.6	2	4	90	0.00	30.345 
08:20	31.5	31.5	31.5	67	21.8	2	5	90	0.00	30.345 
08:25	31.6	31.6	31.6	67	21.9	2	5	112	0.00	30.345 
08:30	31.8	31.8	31.8	67	22.1	2	4	112	0.00	30.346 
08:35	32.2	32.2	32.2	66	22.1	2	4	112	0.00	30.346 
08:40	32.7	32.7	32.7	65	22.3	2	5	112	0.00	30.346 
08:45	33.1	33.1	33.1	65	22.6	2	5	112	0.00	30.333 
08:50	33.4	29.7	33.4	64	22.6	4	10	90	0.00	30.333 
08:55	33.7	33.7	33.7	63	22.5	2	5	90	0.00	30.333 
09:00	34.0	34.0	34.0	62	22.4	3	7	90	0.00	30.328 
09:05	34.3	34.3	34.3	63	23.0	1	5	112	0.00	30.328 
09:10	34.7	34.7	34.7	63	23.4	1	4	68	0.00	30.328 
09:15	34.9	34.9	34.9	62	23.2	3	9	90	0.00	30.330 
09:20	35.0	35.0	35.0	61	22.9	3	10	112	0.00	30.330 
09:25	35.2	35.2	35.2	61	23.1	2	7	112	0.00	30.330 
09:30	35.5	35.5	35.5	61	23.4	2	5	68	0.00	30.316 
09:35	35.8	35.8	35.8	61	23.7	2	5	90	0.00	30.316 
09:40	36.2	36.2	36.2	60	23.7	2	6	90	0.00	30.316 
09:45	36.8	36.8	36.8	58	23.4	2	7	90	0.00	30.312 
09:50	37.2	37.2	37.2	57	23.4	3	7	90	0.00	30.312 
09:55	37.5	37.5	37.5	57	23.7	3	7	90	0.00	30.312 
10:00	38.0	38.0	38.0	54	22.9	3	7	90	0.00	30.309 
10:05	38.3	38.3	38.3	57	24.4	3	10	90	0.00	30.309 
10:10	38.9	38.9	38.9	54	23.7	3	7	90	0.00	30.309 
10:15	39.3	39.3	39.3	55	24.5	3	9	90	0.00	30.308 
10:20	39.8	39.8	39.8	52	23.6	3	7	90	0.00	30.308 
10:25	40.2	40.2	40.2	52	24.0	2	6	112	0.00	30.308 
10:30	40.8	40.8	40.8	52	24.6	3	6	112	0.00	30.303 
10:35	41.1	41.1	41.1	50	23.9	2	9	90	0.00	30.303 
10:40	41.2	41.2	41.2	50	24.0	3	7	90	0.00	30.303 
10:45	41.6	41.6	41.6	50	24.4	2	8	90	0.00	30.299 
10:50	42.1	42.1	42.1	49	24.3	3	10	112	0.00	30.299 
10:55	42.5	42.5	42.5	47	23.7	2	4	68	0.00	30.299 
11:00	42.9	42.9	42.9	48	24.6	3	7	90	0.00	30.295 
11:05	43.5	43.5	43.5	48	25.1	2	5	68	0.00	30.295 
11:10	43.6	43.6	43.6	46	24.2	3	5	90	0.00	30.295 
11:15	43.8	43.8	43.8	48	25.4	3	7	112	0.00	30.289 
11:20	44.1	44.1	44.1	45	24.1	2	6	112	0.00	30.289 
11:25	44.5	44.5	44.5	46	25.0	3	9	112	0.00	30.289 
11:30	44.9	44.9	44.9	46	25.4	2	6	90	0.00	30.286 
11:35	45.5	45.5	45.5	44	24.9	2	6	90	0.00	30.286 
11:40	46.1	46.1	46.1	43	24.9	2	5	90	0.00	30.286 
11:45	46.5	46.5	46.5	42	24.7	2	5	90	0.00	30.273 
11:50	46.8	46.8	46.8	43	25.5	2	4	90	0.00	30.273 
11:55	47.3	47.3	47.3	40	24.2	2	7	90	0.00	30.273 
12:00	47.4	47.4	47.4	42	25.5	2	6	90	0.00	30.269 
12:05	47.4	47.4	47.4	42	25.5	3	6	90	0.00	30.269 
12:10	47.7	47.7	47.7	42	25.7	2	5	90	0.00	30.269 
12:15	48.3	48.3	48.3	41	25.7	2	4	90	0.00	30.267 
12:20	48.3	46.9	48.3	40	25.1	4	11	90	0.00	30.267 
12:25	48.8	48.8	48.8	38	24.3	2	5	90	0.00	30.267 
12:30	49.2	49.2	49.2	37	24.1	3	7	68	0.00	30.257 
12:35	49.2	49.2	49.2	36	23.4	2	7	90	0.00	30.257 
12:40	49.4	49.4	49.4	37	24.2	2	6	112	0.00	30.257 
12:45	49.6	49.6	49.6	38	25.0	2	6	112	0.00	30.243 
12:50	49.8	49.8	49.8	37	24.6	3	10	90	0.00	30.243 
12:55	49.9	49.9	49.9	37	24.7	2	7	112	0.00	30.243 
13:00	50.2	50.2	50.2	40	26.8	2	7	90	0.00	30.240 
13:05	50.4	50.4	50.4	35	23.8	2	6	90	0.00	30.240 
13:10	50.4	50.4	50.4	35	23.8	2	7	90	0.00	30.240 
13:15	50.5	50.5	50.5	36	24.6	2	4	90	0.00	30.241 
13:20	51.0	51.0	51.0	39	26.9	1	3	135	0.00	30.241 
13:25	51.4	51.4	51.4	35	24.7	2	7	90	0.00	30.241 
13:30	51.7	51.7	51.7	37	26.3	2	6	112	0.00	30.240 
13:35	51.9	51.9	51.9	34	24.4	2	6	90	0.00	30.240 
13:40	52.0	52.0	52.0	35	25.2	2	4	135	0.00	30.240 
13:45	52.3	52.3	52.3	35	25.5	2	5	90	0.00	30.236 
13:50	52.2	52.2	52.2	36	26.1	2	6	90	0.00	30.236 
13:55	52.3	52.3	52.3	36	26.1	1	6	112	0.00	30.236 
14:00	53.1	53.1	53.1	36	26.9	1	3	270	0.00	30.232 
14:05	53.5	53.5	53.5	35	26.5	1	5	270	0.00	30.232 
14:10	53.5	53.5	53.5	32	24.4	2	5	90	0.00	30.232 
14:15	53.5	53.5	53.5	33	25.1	1	5	90	0.00	30.228 
14:20	53.6	53.6	53.6	31	23.7	2	6	90	0.00	30.228 
14:25	53.9	53.9	53.9	36	27.6	1	5	135	0.00	30.228 
14:30	54.1	54.1	54.1	33	25.6	2	6	90	0.00	30.208 
14:35	54.2	54.2	54.2	37	28.5	1	4	90	0.00	30.208 
14:40	54.2	54.2	54.2	32	25.0	2	4	112	0.00	30.208 
14:45	54.5	54.5	54.5	33	26.0	2	6	90	0.00	30.190 
14:50	54.7	54.7	54.7	35	27.6	1	4	90	0.00	30.190 
14:55	54.7	54.7	54.7	34	26.9	3	6	112	0.00	30.190 
15:00	54.7	54.7	54.7	33	26.2	2	7	112	0.00	30.165 
15:05	54.8	54.8	54.8	33	26.3	3	7	112	0.00	30.165 
15:10	55.0	55.0	55.0	35	27.9	1	5	158	0.00	30.165 
15:15	55.3	55.3	55.3	34	27.4	2	6	112	0.00	30.152 
15:20	55.4	55.4	55.4	34	27.5	2	4	90	0.00	30.152 
15:25	55.3	55.3	55.3	35	28.1	3	9	90	0.00	30.152 
15:30	55.4	55.4	55.4	32	26.0	3	5	90	0.00	30.144 
15:35	55.7	55.7	55.7	36	29.2	1	4	90	0.00	30.144 
15:40	56.0	56.0	56.0	32	26.6	2	6	112	0.00	30.144 
15:45	56.0	56.0	56.0	31	25.8	2	9	112	0.00	30.131 
15:50	55.9	55.9	55.9	32	26.5	2	7	90	0.00	30.131 
15:55	56.3	56.3	56.3	33	27.6	2	7	68	0.00	30.131 
16:00	56.9	56.9	56.9	35	29.5	2	7	112	0.00	30.112 
16:05	57.3	57.3	57.3	35	29.9	1	5	338	0.00	30.112 
16:10	57.8	57.8	57.8	32	28.1	2	4	112	0.00	30.112 
16:15	58.0	58.0	58.0	30	26.7	2	6	68	0.00	30.101 
16:20	58.0	58.0	58.0	31	27.5	2	6	90	0.00	30.101 
16:25	58.1	58.1	58.1	30	26.8	2	9	112	0.00	30.101 
16:30	58.1	58.1	58.1	31	27.6	2	7	45	0.00	30.082 
16:35	58.3	58.3	58.3	32	28.6	2	4	112	0.00	30.082 
16:40	58.4	58.4	58.4	32	28.7	2	9	112	0.00	30.082 
16:45	58.4	58.4	58.4	29	26.3	2	5	90	0.00	30.077 
16:50	58.3	58.3	58.3	31	27.8	2	4	112	0.00	30.077 
16:55	58.3	58.3	58.3	31	27.8	1	5	90	0.00	30.077 
17:00	58.4	58.4	58.4	32	28.7	2	5	90	0.00	30.062 
17:05	58.4	58.4	58.4	33	29.4	2	6	90	0.00	30.062 
17:10	58.6	58.6	58.6	31	28.1	2	4	112	0.00	30.062 
17:15	58.9	58.9	58.9	34	30.6	1	4	158	0.00	30.059 
17:20	58.9	58.9	58.9	29	26.7	2	7	112	0.00	30.059 
17:25	58.9	58.9	58.9	29	26.7	3	10	90	0.00	30.059 
17:30	58.7	58.7	58.7	30	27.4	2	5	90	0.00	30.046 
17:35	58.6	58.6	58.6	30	27.3	2	6	90	0.00	30.046 
17:40	58.6	58.6	58.6	31	28.1	1	5	112	0.00	30.046 
17:45	58.7	58.7	58.7	32	28.9	1	5	112	0.00	30.033 
17:50	58.7	58.7	58.7	31	28.1	2	6	112	0.00	30.033 
17:55	58.9	58.9	58.9	31	28.3	2	6	90	0.00	30.033 
18:00	58.9	58.9	58.9	30	27.5	2	7	112	0.00	30.015 
18:05	58.9	58.9	58.9	31	28.3	3	9	90	0.00	30.015 
18:10	58.7	58.7	58.7	33	29.7	2	10	112	0.00	30.015 
18:15	58.7	58.7	58.7	31	28.1	2	7	112	0.00	30.000 
18:20	58.6	58.6	58.6	32	28.8	2	6	90	0.00	30.000 
18:25	58.6	58.6	58.6	33	29.6	2	11	112	0.00	30.000 
18:30	58.4	58.4	58.4	32	28.7	3	7	90	0.00	29.992 
18:35	58.4	58.4	58.4	32	28.7	2	6	112	0.00	29.992 
18:40	58.4	58.4	58.4	33	29.4	2	7	112	0.00	29.992 
18:45	58.7	58.7	58.7	33	29.7	2	5	90	0.00	29.983 
18:50	58.9	58.9	58.9	31	28.3	3	10	112	0.00	29.983 
18:55	59.0	59.0	59.0	32	29.2	3	7	90	0.00	29.983 
19:00	59.0	59.0	59.0	33	29.9	2	5	90	0.00	29.969 
19:05	58.9	58.9	58.9	33	29.9	1	4	90	0.00	29.969 
19:10	58.6	58.6	58.6	33	29.6	2	5	112	0.00	29.969 
19:15	58.4	58.4	58.4	34	30.1	3	8	90	0.00	29.960 
19:20	58.3	58.3	58.3	35	30.8	2	6	90	0.00	29.960 
19:25	58.1	58.1	58.1	35	30.6	2	7	112	0.00	29.960 
19:30	58.0	58.0	58.0	36	31.2	2	7	112	0.00	29.954 
19:35	58.0	58.0	58.0	36	31.2	2	6	90	0.00	29.954 
19:40	58.0	58.0	58.0	36	31.2	1	7	112	0.00	29.954 
19:45	57.8	57.8	57.8	37	31.7	1	3	90	0.00	29.970 
19:50	57.5	57.5	57.5	38	32.1	0	1	90	0.00	29.970 
19:55	57.2	57.2	57.2	39	32.5	0	1	90	0.00	29.970 
20:00	57.0	57.0	57.0	39	32.3	0	1	90	0.00	29.981 
20:05	56.7	56.7	56.7	39	32.0	0	2	90	0.00	29.981 
20:10	56.7	56.7	56.7	39	32.0	1	3	90	0.00	29.981 
20:15	57.0	57.0	57.0	39	32.3	1	4	90	0.00	29.958 
20:20	57.2	57.2	57.2	39	32.5	1	3	90	0.00	29.958 
20:25	57.3	57.3	57.3	39	32.6	1	4	90	0.00	29.958 
20:30	57.3	57.3	57.3	40	33.2	1	6	135	0.00	29.954 
20:35	57.2	57.2	57.2	40	33.1	1	3	68	0.00	29.954 
20:40	57.2	57.2	57.2	40	33.1	0	3	68	0.00	29.954 
20:45	57.0	57.0	57.0	41	33.5	1	3	68	0.00	29.951 
20:50	56.9	56.9	56.9	41	33.4	1	3	68	0.00	29.951 
20:55	56.9	56.9	56.9	41	33.4	1	4	112	0.00	29.951 
21:00	56.9	56.9	56.9	41	33.4	2	4	112	0.00	29.934 
21:05	56.9	56.9	56.9	41	33.4	2	7	68	0.00	29.934 
21:10	56.7	56.7	56.7	41	33.3	1	5	90	0.00	29.934 
21:15	56.7	56.7	56.7	42	33.9	2	10	90	0.00	29.917 
21:20	56.6	56.6	56.6	42	33.8	1	4	90	0.00	29.917 
21:25	56.5	56.5	56.5	43	34.3	1	3	90	0.00	29.917 
21:30	56.3	56.3	56.3	44	34.7	1	3	90	0.00	29.925 
21:35	56.3	56.3	56.3	44	34.7	1	5	68	0.00	29.925 
21:40	56.3	56.3	56.3	45	35.2	1	3	270	0.00	29.925 
21:45	56.3	56.3	56.3	44	34.7	1	4	270	0.00	29.931 
21:50	56.2	56.2	56.2	45	35.1	0	2	270	0.00	29.931 
21:55	56.0	56.0	56.0	44	34.4	1	3	270	0.00	29.931 
22:00	56.0	56.0	56.0	44	34.4	0	2	248	0.00	29.935 
22:05	56.2	56.2	56.2	44	34.6	1	5	248	0.00	29.935 
22:10	56.3	56.3	56.3	44	34.7	0	5	270	0.00	29.935 
22:15	56.3	56.3	56.3	44	34.7	0	4	270	0.00	29.935 
22:20	56.5	56.5	56.5	44	34.9	1	5	248	0.00	29.935 
22:25	56.5	56.5	56.5	44	34.9	0	4	248	0.00	29.935 
22:30	56.5	56.5	56.5	44	34.9	0	3	248	0.00	29.936 
22:35	56.5	56.5	56.5	44	34.9	1	5	315	0.00	29.936 
22:40	56.5	56.5	56.5	44	34.9	1	4	248	0.00	29.936 
22:45	56.5	56.5	56.5	45	35.4	1	4	248	0.00	29.932 
22:50	56.5	56.5	56.5	45	35.4	1	4	248	0.00	29.932 
22:55	56.6	56.6	56.6	45	35.5	1	5	248	0.00	29.932 
23:00	56.5	56.5	56.5	45	35.4	1	3	248	0.00	29.936 
23:05	56.5	56.5	56.5	45	35.4	1	3	248	0.00	29.936 
23:10	56.5	56.5	56.5	45	35.4	0	3	248	0.00	29.936 
23:15	56.3	56.3	56.3	46	35.8	0	1	248	0.00	29.932 
23:20	56.2	56.2	56.2	46	35.7	0	2	248	0.00	29.932 
23:25	56.0	56.0	56.0	47	36.1	1	4	248	0.00	29.932 
23:30	56.0	56.0	56.0	47	36.1	0	2	248	0.00	29.925 
23:35	56.0	56.0	56.0	47	36.1	1	4	248	0.00	29.925 
23:40	56.0	56.0	56.0	48	36.6	1	4	248	0.00	29.925 
23:45	55.9	55.9	55.9	49	37.0	0	2	248	0.00	29.902 
23:50	55.6	55.6	55.6	50	37.3	0	2	248	0.00	29.902 
23:55	55.4	55.4	55.4	50	37.1	1	3	248	0.00	29.902 

CoCoRaHS
IN-AL-39
A2 Web Hosting
Creative Commons License
GoDaddy
search engine by freefind advanced

loaded 2018-11-12 19:11:54 • last modified 2010-11-18 10:43:29
Privacy PolicyDisclaimer
• wx.awcolley.com is powered by PmWiki v.2002016 •
• all content (unless otherwise noted) © 2018 A W Colley